Ostend-Bruges International Airport

EBOS · West-Vlaanderen, Flanders, 比利时

罗盘
风向 的 风向 310° Ostend-Bruges International Airport 8/26
风: 8 kt, 3 beaufort

5 kt

6 kt
改变
0 ft 1.000 2.000 3.000 4.000 5.000
Cloud Cloud Cloud Cloud Cloud Cloud
BKN 500
Cloud Cloud Cloud Cloud Cloud Cloud
BKN 800
METAR EBOS 210950Z 31008KT 8000 BKN005 BKN008 15/14 Q1014 BECMG BKN012

METAR Ostend-Bruges International Airport - EBOS/OST

Ostend-Bruges International Airport是,比利时中的中型机场。 该机场位于纬度51,19990和经度2,87493。 该机场有一条跑道: 8/26. 本场的ICAO机场代码为EBOS。 该机场的IATA代码为OST。 机场在Bruxelles FIR中。

该航空气象观测是针对Ostend-Bruges International Airport在2024年6月21日 11:50, 当地时间进行的。

机场观察

风向为310°,速度为8 kt。

可见度为8 km。

有碎云在500 ft的高度 和 碎云在800 ft的高度。 破损或更高的上限为500 ft。

温度和风寒是15 °C。 露点为14 °C,相对湿度为94%。 海平面上的气压为1014 hPa (QNH)。

发展趋势

  • 变得

    可变方向的风很小或没有。 碎云在1.200 ft的高度.

白天

今天,太阳从05:32升起,在22:07降落。 这适用于Ostend-Bruges International Airport,世界夏令时可能有所不同。 当地时间与世界标准时间之间的时差为+2 小时。 夏令时目前正在进行中。

公司介绍

我们没有关于这个机场的公司信息。

体会

到Vliegles.nl去找飞行课程,跳伞和其他飞行体验。 浏览页面,了解Ostend-Bruges International Airport附近所有可用的活动。 你也可以使用搜索功能来寻找你所在地附近的特定飞行课程、跳伞或其他飞行体验。

跑道

Id 标题 侧风 逆风 侧风 %
8/26 077°-257° 6 kt 5 kt 80 %

逆风成分最大的方向会被突出显示,并用于横风计算。 这并不一定意味着这个方向在使用。

乌云

500 ft BKN 碎云
800 ft BKN 碎云
1.200 ft BKN 变得 碎云

温度 & 天气

温度 15 °C
露点 14 °C
相对湿度 94%
Kp-index 0 (0-9)

白天

日出
05:32
中午
13:50
日落
22:07 (9:46)

小工具

你想在你的网站上有一个关于Ostend-Bruges International Airport的当前航空天气(METAR)的小部件吗?

显示HTML代码
报告变更